Time;durP1;ratioP1;P1;durP2;ratioP2;P2;SDS_P1;SDS_P2;PMS_P1;PMS_P2;Temp;Humidity;BMP_temperature;BMP_pressure;BME280_temperature;BME280_humidity;BME280_pressure;Samples;Min_cycle;Max_cycle;Signal;HPM_P1;HPM_P2
2024/01/01 00:02:20;;;;;;;126.22;76.78;;;;;;;4.40;100.00;98676.03;5054977;28;20055;-84
2024/01/01 00:04:46;;;;;;;134.98;83.03;;;;;;;4.63;100.00;98716.41;5054809;28;20363;-84
2024/01/01 00:07:11;;;;;;;127.72;79.60;;;;;;;4.51;100.00;98694.53;5054944;28;20029;-84
2024/01/01 00:09:37;;;;;;;128.32;79.80;;;;;;;4.25;100.00;98665.34;5054776;28;20098;-84
2024/01/01 00:12:02;;;;;;;124.22;80.60;;;;;;;4.31;100.00;98686.69;5054716;28;20027;-84
2024/01/01 00:14:28;;;;;;;133.13;83.07;;;;;;;4.35;100.00;98691.66;5054683;28;20043;-85
2024/01/01 00:16:53;;;;;;;127.47;80.05;;;;;;;4.28;100.00;98682.47;5054884;28;20035;-85
2024/01/01 00:19:19;;;;;;;137.57;82.75;;;;;;;4.36;100.00;98683.03;5054727;28;20458;-84
2024/01/01 00:21:44;;;;;;;124.63;79.40;;;;;;;4.52;100.00;98703.94;5054572;28;20021;-85
2024/01/01 00:24:10;;;;;;;130.27;81.63;;;;;;;4.44;100.00;98701.63;5054685;28;20356;-84
2024/01/01 00:26:35;;;;;;;122.22;79.10;;;;;;;4.44;100.00;98705.94;5053872;28;20594;-85
2024/01/01 00:29:02;;;;;;;126.10;78.93;;;;;;;4.38;100.00;98699.28;5054224;28;20436;-84
2024/01/01 00:31:27;;;;;;;127.85;79.55;;;;;;;4.59;100.00;98726.00;5054001;28;20434;-84
2024/01/01 00:33:53;;;;;;;129.85;80.65;;;;;;;4.52;100.00;98721.97;5052511;28;20116;-84
2024/01/01 00:36:18;;;;;;;128.68;80.63;;;;;;;4.35;100.00;98706.28;5054269;28;20021;-84
2024/01/01 00:38:44;;;;;;;132.30;80.70;;;;;;;4.33;100.00;98700.34;5054070;28;20363;-84
2024/01/01 00:41:16;;;;;;;129.15;77.63;;;;;;;4.45;100.00;98723.09;5054257;28;20013;-84
2024/01/01 00:43:43;;;;;;;124.40;77.63;;;;;;;4.44;100.00;98717.09;5054043;28;20025;-84
2024/01/01 00:46:09;;;;;;;130.45;79.57;;;;;;;4.54;100.00;98727.91;5054138;28;20028;-83
2024/01/01 00:48:34;;;;;;;136.57;85.07;;;;;;;4.40;100.00;98717.28;5052812;28;20025;-83
2024/01/01 00:50:59;;;;;;;131.85;80.43;;;;;;;4.50;100.00;98729.75;5052617;28;20021;-83
2024/01/01 00:53:25;;;;;;;139.88;86.30;;;;;;;4.46;100.00;98717.88;5053508;28;20033;-83
2024/01/01 00:55:50;;;;;;;142.38;90.03;;;;;;;4.34;100.00;98690.00;5053896;28;20028;-84
2024/01/01 00:58:16;;;;;;;149.00;90.30;;;;;;;4.64;100.00;98731.00;5053906;28;20164;-84
2024/01/01 01:00:41;;;;;;;145.88;92.28;;;;;;;4.49;100.00;98704.88;5052213;28;20381;-84
2024/01/01 01:03:06;;;;;;;135.07;83.82;;;;;;;4.60;100.00;98725.13;5053542;28;20017;-84
2024/01/01 01:05:32;;;;;;;137.23;86.03;;;;;;;4.65;100.00;98735.25;5054007;28;20518;-84
2024/01/01 01:07:58;;;;;;;138.70;88.05;;;;;;;4.52;100.00;98721.16;5053586;28;20017;-84
2024/01/01 01:10:24;;;;;;;134.63;82.80;;;;;;;4.67;100.00;98743.75;5053736;28;20028;-84
2024/01/01 01:12:53;;;;;;;134.65;82.22;;;;;;;4.49;100.00;98706.63;5053398;28;20051;-84
2024/01/01 01:15:19;;;;;;;122.25;77.05;;;;;;;4.51;100.00;98710.00;5052355;28;20350;-84
2024/01/01 01:17:44;;;;;;;138.13;82.07;;;;;;;4.70;100.00;98746.25;5053377;28;20027;-84
2024/01/01 01:20:10;;;;;;;123.82;78.22;;;;;;;4.50;100.00;98722.00;5053543;28;20086;-84
2024/01/01 01:22:36;;;;;;;123.22;72.75;;;;;;;4.77;100.00;98763.19;5053518;28;20052;-84
2024/01/01 01:25:01;;;;;;;115.47;68.18;;;;;;;4.67;100.00;98751.50;5053200;28;20059;-84
2024/01/01 01:27:26;;;;;;;103.95;61.55;;;;;;;4.81;100.00;98761.34;5053346;28;20029;-84
2024/01/01 01:29:52;;;;;;;96.75;55.38;;;;;;;4.83;100.00;98765.50;5053348;28;20363;-84
2024/01/01 01:32:17;;;;;;;85.30;50.30;;;;;;;4.69;100.00;98757.47;5053263;28;20024;-84
2024/01/01 01:34:43;;;;;;;78.35;46.58;;;;;;;4.88;100.00;98780.81;5053076;28;20027;-84
2024/01/01 01:37:08;;;;;;;82.80;49.42;;;;;;;4.90;100.00;98779.88;5051627;28;20017;-84
2024/01/01 01:39:33;;;;;;;75.63;46.58;;;;;;;4.91;100.00;98789.28;5052287;28;20021;-84
2024/01/01 01:41:59;;;;;;;76.68;46.70;;;;;;;4.92;100.00;98788.38;5052931;28;20020;-84
2024/01/01 01:44:25;;;;;;;72.03;44.55;;;;;;;4.82;100.00;98760.44;5053060;28;20032;-84
2024/01/01 01:46:51;;;;;;;70.15;42.13;;;;;;;4.87;100.00;98764.50;5051541;28;20077;-84
2024/01/01 01:49:16;;;;;;;80.30;43.65;;;;;;;4.98;100.00;98769.28;5053051;28;20195;-84
2024/01/01 01:51:44;;;;;;;65.57;40.65;;;;;;;4.92;100.00;98761.75;5052907;28;20475;-84
2024/01/01 01:54:10;;;;;;;68.28;40.75;;;;;;;4.91;100.00;98744.59;5052764;28;20428;-84
2024/01/01 01:56:36;;;;;;;72.20;42.85;;;;;;;5.05;100.00;98762.97;5052925;28;20045;-85
2024/01/01 01:59:03;;;;;;;61.92;37.28;;;;;;;5.06;100.00;98740.59;5052255;28;20090;-83
2024/01/01 02:01:29;;;;;;;65.50;40.15;;;;;;;5.05;100.00;98736.31;5051562;28;20451;-83
2024/01/01 02:03:54;;;;;;;54.38;33.08;;;;;;;5.16;100.00;98736.75;5051258;28;20025;-85
2024/01/01 02:06:20;;;;;;;59.03;35.25;;;;;;;4.95;100.00;98707.44;5052712;28;20325;-85
2024/01/01 02:08:45;;;;;;;65.57;37.97;;;;;;;5.07;100.00;98703.56;5052752;28;20025;-85
2024/01/01 02:11:11;;;;;;;79.85;48.85;;;;;;;5.19;100.00;98709.06;5051192;28;20029;-85
2024/01/01 02:13:36;;;;;;;66.10;41.50;;;;;;;5.02;100.00;98666.78;5051448;28;20025;-85
2024/01/01 02:16:02;;;;;;;68.13;40.28;;;;;;;5.11;100.00;98689.63;5052451;28;20063;-85
2024/01/01 02:18:28;;;;;;;75.47;44.58;;;;;;;5.12;100.00;98689.56;5052748;28;20429;-85
2024/01/01 02:20:55;;;;;;;85.47;52.88;;;;;;;5.08;100.00;98685.41;5052309;28;20021;-85
2024/01/01 02:23:20;;;;;;;97.32;58.08;;;;;;;4.89;100.00;98656.94;5052533;28;20406;-85
2024/01/01 02:25:46;;;;;;;87.50;51.22;;;;;;;5.14;100.00;98698.09;5052646;28;20047;-85
2024/01/01 02:28:13;;;;;;;87.20;55.45;;;;;;;4.91;100.00;98660.28;5051075;28;20372;-85
2024/01/01 02:30:39;;;;;;;82.70;50.53;;;;;;;5.07;100.00;98683.75;5052532;28;20406;-85
2024/01/01 02:33:09;;;;;;;83.03;52.17;;;;;;;4.91;100.00;98659.44;5052386;28;20025;-85
2024/01/01 02:35:35;;;;;;;83.25;50.15;;;;;;;4.72;100.00;98638.72;5052070;28;20476;-84
2024/01/01 02:38:04;;;;;;;73.28;45.83;;;;;;;4.91;100.00;98656.88;5051972;28;20029;-85
2024/01/01 02:40:31;;;;;;;63.85;41.03;;;;;;;5.07;100.00;98688.91;5052324;28;20025;-85
2024/01/01 02:42:56;;;;;;;62.88;39.53;;;;;;;4.86;100.00;98651.06;5052099;28;20032;-85
2024/01/01 02:45:24;;;;;;;68.88;42.63;;;;;;;4.90;100.00;98661.19;5052239;28;20025;-85
2024/01/01 02:47:49;;;;;;;63.53;41.75;;;;;;;4.93;100.00;98645.59;5052295;28;20087;-85
2024/01/01 02:50:15;;;;;;;61.55;42.33;;;;;;;5.15;100.00;98684.28;5053793;28;20063;-85
2024/01/01 02:52:41;;;;;;;61.53;41.47;;;;;;;5.15;100.00;98686.03;5055029;28;20167;-85
2024/01/01 02:55:07;;;;;;;70.68;43.60;;;;;;;5.08;100.00;98675.09;5056029;28;20456;-85
2024/01/01 02:57:32;;;;;;;64.28;41.80;;;;;;;5.08;100.00;98667.34;5056003;28;20024;-85
2024/01/01 02:59:58;;;;;;;57.08;34.42;;;;;;;5.09;100.00;98668.19;5055883;28;20033;-85
2024/01/01 03:02:23;;;;;;;41.05;27.63;;;;;;;5.19;100.00;98674.69;5055910;28;20028;-85
2024/01/01 03:04:48;;;;;;;44.47;27.58;;;;;;;5.17;100.00;98668.72;5056014;28;20070;-85
2024/01/01 03:07:14;;;;;;;45.90;28.52;;;;;;;5.01;100.00;98640.09;5055981;28;20028;-85
2024/01/01 03:09:39;;;;;;;62.75;39.47;;;;;;;5.11;100.00;98674.97;5054456;28;20025;-85
2024/01/01 03:12:05;;;;;;;61.95;40.78;;;;;;;5.18;100.00;98673.84;5054349;28;20414;-84
2024/01/01 03:14:31;;;;;;;60.42;39.10;;;;;;;4.96;100.00;98631.72;5055832;28;20121;-84
2024/01/01 03:16:56;;;;;;;58.17;37.80;;;;;;;5.00;100.00;98641.00;5055619;28;20426;-84
2024/01/01 03:19:22;;;;;;;61.47;38.95;;;;;;;4.96;100.00;98626.56;5054566;28;20360;-84
2024/01/01 03:21:47;;;;;;;63.63;37.58;;;;;;;5.05;100.00;98638.25;5054342;28;20360;-84
2024/01/01 03:24:13;;;;;;;47.55;31.80;;;;;;;5.23;100.00;98659.00;5055463;28;20440;-85
2024/01/01 03:26:38;;;;;;;49.50;30.58;;;;;;;5.03;100.00;98622.00;5055639;28;20094;-84
2024/01/01 03:29:03;;;;;;;44.33;30.38;;;;;;;5.08;100.00;98631.22;5054097;28;20043;-84
2024/01/01 03:31:29;;;;;;;45.80;29.55;;;;;;;5.20;100.00;98642.78;5055757;28;20025;-84
2024/01/01 03:33:56;;;;;;;45.10;29.48;;;;;;;5.22;100.00;98657.34;5055378;28;20425;-84
2024/01/01 03:36:21;;;;;;;43.63;28.00;;;;;;;5.17;100.00;98645.50;5055683;28;20107;-85
2024/01/01 03:38:46;;;;;;;43.17;29.98;;;;;;;5.02;100.00;98626.31;5055320;28;20116;-84
2024/01/01 03:41:12;;;;;;;46.10;29.92;;;;;;;5.05;100.00;98640.81;5055067;28;20029;-84
2024/01/01 03:43:37;;;;;;;40.28;28.10;;;;;;;5.06;100.00;98640.78;5055436;28;20440;-85
2024/01/01 03:46:03;;;;;;;44.78;30.10;;;;;;;5.17;100.00;98660.97;5055081;28;20039;-84
2024/01/01 03:48:29;;;;;;;45.90;31.08;;;;;;;4.99;100.00;98632.44;5054959;28;20025;-84
2024/01/01 03:50:54;;;;;;;48.08;31.48;;;;;;;4.97;100.00;98654.91;5055036;28;20021;-84
2024/01/01 03:53:19;;;;;;;42.28;29.25;;;;;;;4.94;100.00;98629.22;5055442;28;20020;-84
2024/01/01 03:55:45;;;;;;;53.78;32.42;;;;;;;5.00;100.00;98659.06;5055078;28;20352;-85
2024/01/01 03:58:10;;;;;;;49.70;30.83;;;;;;;4.86;100.00;98643.31;5053574;28;20433;-84
2024/01/01 04:00:36;;;;;;;48.28;31.70;;;;;;;5.01;100.00;98653.00;5053244;28;20052;-84
2024/01/01 04:03:01;;;;;;;51.72;35.42;;;;;;;4.79;100.00;98626.38;5053922;28;20020;-84
2024/01/01 04:05:27;;;;;;;56.17;36.17;;;;;;;4.81;100.00;98642.66;5054915;28;20051;-84
2024/01/01 04:07:52;;;;;;;57.30;38.33;;;;;;;4.89;100.00;98659.53;5055282;28;20447;-84
2024/01/01 04:10:18;;;;;;;56.08;37.22;;;;;;;4.88;100.00;98657.81;5054708;28;20487;-84
2024/01/01 04:12:44;;;;;;;56.22;38.45;;;;;;;5.01;100.00;98665.91;5054677;28;20495;-84
2024/01/01 04:15:09;;;;;;;54.58;37.38;;;;;;;5.09;100.00;98674.19;5053024;28;20119;-84
2024/01/01 04:17:35;;;;;;;52.28;36.53;;;;;;;4.90;100.00;98634.56;5054908;28;20043;-84
2024/01/01 04:20:00;;;;;;;53.03;37.20;;;;;;;5.08;100.00;98662.19;5054966;28;20043;-84
2024/01/01 04:22:26;;;;;;;58.30;36.65;;;;;;;4.94;100.00;98664.50;5054599;28;20017;-84
2024/01/01 04:24:51;;;;;;;51.60;33.42;;;;;;;4.83;100.00;98644.25;5054583;28;20025;-84
2024/01/01 04:27:17;;;;;;;50.05;33.22;;;;;;;5.04;100.00;98673.53;5054577;28;20469;-84
2024/01/01 04:29:42;;;;;;;50.80;29.80;;;;;;;5.00;100.00;98666.81;5053214;28;20047;-84
2024/01/01 04:32:07;;;;;;;44.00;26.88;;;;;;;4.84;100.00;98650.25;5053043;28;20029;-85
2024/01/01 04:34:33;;;;;;;48.65;30.05;;;;;;;4.93;100.00;98673.97;5054748;28;20070;-85
2024/01/01 04:36:58;;;;;;;51.67;32.10;;;;;;;4.83;100.00;98646.00;5051509;28;20029;-84
2024/01/01 04:39:24;;;;;;;57.83;34.92;;;;;;;4.99;100.00;98667.72;5051762;28;20037;-85
2024/01/01 04:41:49;;;;;;;57.25;36.38;;;;;;;4.95;100.00;98672.16;5051780;28;20034;-85
2024/01/01 04:44:14;;;;;;;57.30;34.97;;;;;;;5.02;100.00;98662.44;5051676;28;20024;-85
2024/01/01 04:46:40;;;;;;;55.28;34.70;;;;;;;4.97;100.00;98648.88;5034714;28;20586;-85
2024/01/01 04:49:05;;;;;;;47.38;31.15;;;;;;;4.76;100.00;98629.91;5051341;28;20039;-85
2024/01/01 04:51:31;;;;;;;49.45;31.25;;;;;;;4.89;100.00;98659.53;5051457;28;20392;-84
2024/01/01 04:53:56;;;;;;;53.70;32.85;;;;;;;4.85;100.00;98659.69;5051544;28;20029;-85
2024/01/01 04:56:23;;;;;;;50.83;31.33;;;;;;;4.71;100.00;98626.69;5051187;28;20040;-85
2024/01/01 04:58:48;;;;;;;39.55;26.45;;;;;;;4.67;100.00;98617.38;5051334;28;20035;-85
2024/01/01 05:01:14;;;;;;;42.40;25.60;;;;;;;4.94;100.00;98665.34;5051249;28;20437;-85
2024/01/01 05:03:39;;;;;;;35.80;23.90;;;;;;;4.81;100.00;98625.44;5051268;28;20048;-84
2024/01/01 05:06:05;;;;;;;39.58;25.25;;;;;;;5.00;100.00;98652.16;5051029;28;20079;-85
2024/01/01 05:08:31;;;;;;;41.10;25.50;;;;;;;4.97;100.00;98649.75;5046638;28;20037;-85
2024/01/01 05:10:57;;;;;;;40.17;24.95;;;;;;;4.90;100.00;98624.22;5053771;28;20020;-85
2024/01/01 05:13:22;;;;;;;33.30;21.77;;;;;;;4.99;100.00;98647.09;5053432;28;20020;-84
2024/01/01 05:15:48;;;;;;;35.92;22.38;;;;;;;5.08;100.00;98641.53;5053855;28;20156;-85
2024/01/01 05:18:14;;;;;;;35.55;23.15;;;;;;;4.94;100.00;98621.47;5052111;28;20025;-84
2024/01/01 05:20:39;;;;;;;39.20;24.63;;;;;;;5.06;100.00;98639.94;5052192;28;20079;-85
2024/01/01 05:23:05;;;;;;;41.40;26.13;;;;;;;4.97;100.00;98623.94;5051892;28;20025;-85
2024/01/01 05:25:30;;;;;;;45.05;27.75;;;;;;;4.87;100.00;98607.13;5053593;28;20033;-85
2024/01/01 05:27:55;;;;;;;40.03;25.88;;;;;;;5.02;100.00;98640.97;5054020;28;20028;-84
2024/01/01 05:30:21;;;;;;;37.65;25.77;;;;;;;4.91;100.00;98606.09;5053478;28;20032;-85
2024/01/01 05:32:46;;;;;;;40.13;27.08;;;;;;;5.14;100.00;98636.16;5053368;28;20028;-85
2024/01/01 05:35:12;;;;;;;41.28;26.60;;;;;;;4.98;100.00;98607.53;5051699;28;20055;-85
2024/01/01 05:37:37;;;;;;;44.47;28.88;;;;;;;4.92;100.00;98599.19;5053461;28;20032;-84
2024/01/01 05:40:03;;;;;;;44.80;29.23;;;;;;;5.02;100.00;98620.31;5051953;28;20021;-85
2024/01/01 05:42:31;;;;;;;41.42;26.38;;;;;;;4.88;100.00;98602.78;5052988;28;20024;-85
2024/01/01 05:44:57;;;;;;;38.67;24.90;;;;;;;4.97;100.00;98621.34;5053340;28;20107;-85
2024/01/01 05:47:22;;;;;;;36.13;25.20;;;;;;;4.86;100.00;98609.78;5053108;28;20074;-85
2024/01/01 05:49:48;;;;;;;44.63;28.73;;;;;;;4.96;100.00;98624.81;5053203;28;20368;-85
2024/01/01 05:52:13;;;;;;;47.00;28.13;;;;;;;4.85;100.00;98608.94;5051643;28;20029;-85
2024/01/01 05:54:39;;;;;;;36.65;24.77;;;;;;;4.90;100.00;98609.59;5052006;28;20076;-85
2024/01/01 05:57:04;;;;;;;36.22;23.70;;;;;;;4.96;100.00;98613.66;5052656;28;20082;-84
2024/01/01 05:59:29;;;;;;;36.65;24.55;;;;;;;4.68;100.00;98576.06;5053273;28;20037;-85
2024/01/01 06:01:55;;;;;;;35.75;24.58;;;;;;;4.95;100.00;98602.50;5053028;28;20111;-84
2024/01/01 06:04:20;;;;;;;41.75;27.02;;;;;;;5.06;100.00;98625.31;5053207;28;20032;-84
2024/01/01 06:06:45;;;;;;;50.15;30.67;;;;;;;5.10;100.00;98638.88;5065075;28;20017;-84
2024/01/01 06:09:11;;;;;;;111.60;56.00;;;;;;;5.02;100.00;98638.38;5067045;28;20017;-85
2024/01/01 06:11:36;;;;;;;68.97;38.05;;;;;;;4.97;100.00;98636.84;5065556;28;20028;-85
2024/01/01 06:14:02;;;;;;;52.35;31.70;;;;;;;4.94;100.00;98642.09;5058336;28;20155;-85
2024/01/01 06:16:28;;;;;;;49.70;29.85;;;;;;;4.98;100.00;98640.25;5052914;28;20445;-84
2024/01/01 06:18:54;;;;;;;76.13;40.33;;;;;;;4.87;100.00;98616.59;5051496;28;20024;-84
2024/01/01 06:21:19;;;;;;;69.93;38.97;;;;;;;4.94;100.00;98629.22;5052252;28;20013;-84
2024/01/01 06:23:45;;;;;;;76.63;38.30;;;;;;;4.97;100.00;98636.84;5063738;28;20040;-84
2024/01/01 06:26:12;;;;;;;72.65;39.70;;;;;;;4.94;100.00;98636.94;5072321;28;20474;-84
2024/01/01 06:28:38;;;;;;;83.28;43.88;;;;;;;4.91;100.00;98621.56;5071073;28;20031;-84
2024/01/01 06:31:04;;;;;;;78.13;43.78;;;;;;;4.98;100.00;98637.66;5072630;28;20082;-84
2024/01/01 06:33:29;;;;;;;86.32;46.38;;;;;;;4.94;100.00;98647.28;5071325;28;20044;-84
2024/01/01 06:35:55;;;;;;;73.43;40.03;;;;;;;4.86;100.00;98643.31;5072756;28;20016;-84
2024/01/01 06:38:20;;;;;;;77.90;40.90;;;;;;;4.84;100.00;98643.34;5072574;28;20111;-84
2024/01/01 06:40:46;;;;;;;70.93;40.53;;;;;;;4.89;100.00;98653.53;5071192;28;20020;-84
2024/01/01 06:43:12;;;;;;;57.53;32.55;;;;;;;4.90;100.00;98653.44;5072260;28;20071;-84
2024/01/01 06:45:37;;;;;;;58.30;33.60;;;;;;;4.92;100.00;98653.38;5072495;28;20036;-84
2024/01/01 06:48:03;;;;;;;48.35;29.02;;;;;;;4.95;100.00;98653.25;5072532;28;20021;-84
2024/01/01 06:50:28;;;;;;;43.60;27.10;;;;;;;4.94;100.00;98649.84;5071996;28;20017;-84
2024/01/01 06:52:54;;;;;;;38.05;25.40;;;;;;;4.91;100.00;98656.88;5072504;28;20395;-84
2024/01/01 06:55:19;;;;;;;48.88;28.95;;;;;;;4.68;100.00;98631.97;5072181;28;20021;-84
2024/01/01 06:57:44;;;;;;;52.97;30.88;;;;;;;4.85;100.00;98670.03;5072331;28;20112;-84
2024/01/01 07:00:10;;;;;;;56.45;33.28;;;;;;;4.88;100.00;98664.72;5072112;28;20040;-84
2024/01/01 07:02:36;;;;;;;58.38;34.17;;;;;;;4.90;100.00;98666.34;5072167;28;20020;-84
2024/01/01 07:05:02;;;;;;;67.95;40.58;;;;;;;4.86;100.00;98653.63;5072167;28;20070;-84
2024/01/01 07:07:27;;;;;;;49.05;30.50;;;;;;;4.94;100.00;98655.00;5072181;28;20100;-84
2024/01/01 07:09:53;;;;;;;54.85;32.45;;;;;;;4.87;100.00;98660.47;5072299;28;20120;-84
2024/01/01 07:12:23;;;;;;;56.08;33.83;;;;;;;4.91;100.00;98683.50;5069347;28;20035;-84
2024/01/01 07:14:49;;;;;;;64.32;39.58;;;;;;;4.88;100.00;98683.63;5052780;28;20040;-84
2024/01/01 07:17:15;;;;;;;73.78;44.22;;;;;;;4.85;100.00;98670.03;5069486;28;20407;-84
2024/01/01 07:19:41;;;;;;;74.43;44.22;;;;;;;4.85;100.00;98657.97;5069526;28;20089;-84
2024/01/01 07:22:06;;;;;;;72.82;42.50;;;;;;;4.80;100.00;98653.84;5069596;28;20052;-84
2024/01/01 07:24:32;;;;;;;72.55;43.45;;;;;;;4.81;100.00;98655.56;5069652;28;20541;-84
2024/01/01 07:26:57;;;;;;;64.05;40.30;;;;;;;4.88;100.00;98669.88;5069872;28;20082;-84
2024/01/01 07:29:23;;;;;;;56.22;35.88;;;;;;;4.98;100.00;98679.78;5069226;28;20041;-84
2024/01/01 07:31:49;;;;;;;63.92;37.38;;;;;;;4.92;100.00;98674.84;5069338;28;20066;-84
2024/01/01 07:34:18;;;;;;;52.53;33.20;;;;;;;5.03;100.00;98683.94;5069342;28;20036;-84
2024/01/01 07:36:44;;;;;;;47.33;30.65;;;;;;;4.90;100.00;98661.19;5070240;28;20146;-84
2024/01/01 07:39:09;;;;;;;48.55;30.88;;;;;;;5.13;100.00;98687.81;5055983;28;20129;-84
2024/01/01 07:41:35;;;;;;;48.05;29.77;;;;;;;4.98;100.00;98661.72;5055804;28;20120;-84
2024/01/01 07:44:00;;;;;;;46.17;30.10;;;;;;;5.03;100.00;98682.19;5069582;28;20039;-85
2024/01/01 07:46:25;;;;;;;47.72;29.52;;;;;;;5.06;100.00;98696.72;5075752;28;20640;-85
2024/01/01 07:48:51;;;;;;;44.40;30.25;;;;;;;4.98;100.00;98687.53;5075534;28;20016;-84
2024/01/01 07:51:16;;;;;;;43.83;28.98;;;;;;;4.98;100.00;98697.84;5075396;28;20036;-84
2024/01/01 07:53:42;;;;;;;50.55;32.58;;;;;;;4.97;100.00;98697.91;5075314;28;20472;-84
2024/01/01 07:56:08;;;;;;;46.33;29.65;;;;;;;5.00;100.00;98690.03;5075252;28;20024;-85
2024/01/01 07:58:33;;;;;;;49.50;30.98;;;;;;;5.04;100.00;98699.34;5074844;28;20021;-85
2024/01/01 08:00:59;;;;;;;42.42;27.17;;;;;;;4.90;100.00;98676.66;5074712;28;20024;-85
2024/01/01 08:03:25;;;;;;;43.40;28.48;;;;;;;4.91;100.00;98683.50;5074978;28;20021;-85
2024/01/01 08:05:51;;;;;;;46.03;30.48;;;;;;;4.91;100.00;98680.94;5073768;28;20119;-84
2024/01/01 08:08:17;;;;;;;51.72;33.30;;;;;;;5.06;100.00;98700.16;5074672;28;20103;-85
2024/01/01 08:10:43;;;;;;;53.33;32.90;;;;;;;5.02;100.00;98680.53;5073737;28;20412;-85
2024/01/01 08:13:08;;;;;;;44.78;28.98;;;;;;;5.14;100.00;98704.97;5074891;28;20099;-85
2024/01/01 08:15:34;;;;;;;47.00;30.55;;;;;;;4.94;100.00;98667.06;5074661;28;20103;-84
2024/01/01 08:18:00;;;;;;;53.42;31.60;;;;;;;5.11;100.00;98697.38;5071873;28;20033;-85
2024/01/01 08:20:25;;;;;;;51.45;31.42;;;;;;;5.12;100.00;98705.06;5071812;28;20111;-85
2024/01/01 08:22:50;;;;;;;53.08;31.10;;;;;;;4.93;100.00;98673.13;5072151;28;20032;-85
2024/01/01 08:25:16;;;;;;;64.35;38.45;;;;;;;5.03;100.00;98687.34;5071852;28;20029;-85
2024/01/01 08:27:41;;;;;;;67.07;39.28;;;;;;;5.10;100.00;98691.38;5072016;28;20032;-85
2024/01/01 08:30:07;;;;;;;74.70;45.63;;;;;;;5.04;100.00;98694.19;5071973;28;20051;-85
2024/01/01 08:32:33;;;;;;;74.95;44.30;;;;;;;4.92;100.00;98667.13;5054805;28;20029;-85
2024/01/01 08:34:59;;;;;;;75.07;43.70;;;;;;;4.88;100.00;98650.06;5072005;28;20118;-85
2024/01/01 08:37:24;;;;;;;63.20;38.20;;;;;;;4.99;100.00;98681.47;5054740;28;20064;-85
2024/01/01 08:39:49;;;;;;;65.88;38.92;;;;;;;5.08;100.00;98689.75;5072030;28;20559;-84
2024/01/01 08:42:15;;;;;;;62.97;38.38;;;;;;;4.86;100.00;98654.47;5071631;28;20514;-85
2024/01/01 08:44:40;;;;;;;54.50;34.83;;;;;;;5.06;100.00;98670.91;5072021;28;20033;-85
2024/01/01 08:47:06;;;;;;;61.85;38.53;;;;;;;5.24;100.00;98704.56;5054631;28;20395;-85
2024/01/01 08:49:31;;;;;;;66.65;39.22;;;;;;;5.26;100.00;98699.31;5073009;28;20067;-85
2024/01/01 08:51:57;;;;;;;64.40;39.15;;;;;;;5.20;100.00;98689.25;5074168;28;20036;-85
2024/01/01 08:54:23;;;;;;;57.13;37.42;;;;;;;5.28;100.00;98696.69;5072864;28;20066;-85
2024/01/01 08:56:48;;;;;;;64.00;39.50;;;;;;;5.17;100.00;98668.72;5074019;28;20027;-85
2024/01/01 08:59:16;;;;;;;65.72;42.85;;;;;;;5.36;100.00;98702.41;5073562;28;20040;-85
2024/01/01 09:01:49;;;;;;;64.55;40.50;;;;;;;5.44;100.00;98708.09;5073694;28;20016;-85
2024/01/01 09:04:14;;;;;;;73.20;40.95;;;;;;;5.29;100.00;98672.56;5072282;28;20033;-85
2024/01/01 09:06:40;;;;;;;56.03;34.38;;;;;;;5.53;100.00;98712.03;5073803;28;20575;-85
2024/01/01 09:09:08;;;;;;;54.17;33.70;;;;;;;5.34;100.00;98676.63;5072350;28;20021;-85
2024/01/01 09:11:33;;;;;;;48.30;30.33;;;;;;;5.43;100.00;98688.31;5072177;28;20047;-85
2024/01/01 09:14:00;;;;;;;50.15;29.85;;;;;;;5.48;100.00;98700.16;5074028;28;20036;-85
2024/01/01 09:16:29;;;;;;;40.28;28.30;;;;;;;5.54;100.00;98700.81;5073882;28;20029;-85
2024/01/01 09:18:56;;;;;;;45.00;28.38;;;;;;;5.62;100.00;98706.50;5073604;28;20023;-85
2024/01/01 09:21:24;;;;;;;51.88;29.75;;;;;;;5.28;100.00;98643.31;5073208;28;20074;-85
2024/01/01 09:23:50;;;;;;;41.88;28.27;;;;;;;5.43;100.00;98658.16;5071195;28;20024;-85
2024/01/01 09:26:17;;;;;;;42.55;25.48;;;;;;;5.66;100.00;98684.78;5073287;28;20078;-85
2024/01/01 09:28:50;;;;;;;49.60;28.83;;;;;;;5.75;100.00;98679.22;5073326;28;20459;-85
2024/01/01 09:31:15;;;;;;;58.97;32.88;;;;;;;5.58;100.00;98653.28;5073359;28;20032;-85
2024/01/01 09:33:40;;;;;;;58.50;32.22;;;;;;;5.87;100.00;98691.63;5071902;28;20363;-85
2024/01/01 09:36:07;;;;;;;53.30;30.55;;;;;;;5.91;100.00;98690.59;5073177;28;20023;-85
2024/01/01 09:38:32;;;;;;;81.53;40.70;;;;;;;5.73;100.00;98644.84;5072619;28;20020;-85
2024/01/01 09:40:58;;;;;;;64.85;34.08;;;;;;;5.84;100.00;98659.91;5073104;28;20028;-85
2024/01/01 09:43:23;;;;;;;54.58;30.88;;;;;;;5.90;100.00;98647.56;5071427;28;20061;-85
2024/01/01 09:45:49;;;;;;;50.42;30.23;;;;;;;5.97;100.00;98659.34;5071156;28;20028;-85
2024/01/01 09:48:15;;;;;;;35.72;23.80;;;;;;;6.05;100.00;98661.59;5073128;28;20026;-85
2024/01/01 09:50:42;;;;;;;43.60;26.27;;;;;;;6.00;100.00;98648.88;5072884;28;20021;-85
2024/01/01 09:53:08;;;;;;;51.72;29.58;;;;;;;6.14;100.00;98666.34;5073167;28;20073;-85
2024/01/01 09:55:33;;;;;;;39.30;24.80;;;;;;;6.19;100.00;98667.00;5071499;28;20024;-85
2024/01/01 09:57:59;;;;;;;39.03;25.27;;;;;;;6.19;100.00;98663.56;5072996;28;20021;-85
2024/01/01 10:00:24;;;;;;;35.03;20.52;;;;;;;6.23;100.00;98660.75;5071502;28;20055;-85
2024/01/01 10:02:50;;;;;;;32.38;20.50;;;;;;;6.29;100.00;98664.84;5072700;28;20031;-85
2024/01/01 10:05:16;;;;;;;33.00;20.38;;;;;;;6.25;100.00;98652.97;5071549;28;20025;-85
2024/01/01 10:07:44;;;;;;;29.92;19.25;;;;;;;6.12;100.00;98637.16;5072571;28;20096;-85
2024/01/01 10:10:12;;;;;;;27.92;18.80;;;;;;;6.38;100.00;98681.69;5072746;28;20026;-85
2024/01/01 10:12:39;;;;;;;30.17;19.15;;;;;;;6.25;100.00;98652.97;5072562;28;20025;-85
2024/01/01 10:15:06;;;;;;;31.90;19.85;;;;;;;6.18;100.00;98641.22;5072634;28;20491;-85
2024/01/01 10:17:31;;;;;;;32.85;19.52;;;;;;;6.20;100.00;98642.00;5072525;28;20074;-85
2024/01/01 10:19:59;;;;;;;35.05;21.40;;;;;;;6.47;100.00;98676.94;5073067;28;20029;-85
2024/01/01 10:22:31;;;;;;;32.25;23.27;;;;;;;6.53;100.00;98686.19;5071129;28;20024;-85
2024/01/01 10:25:10;;;;;;;41.03;25.13;;;;;;;6.43;100.00;98666.78;5072961;28;20120;-85
2024/01/01 10:27:36;;;;;;;36.40;22.77;;;;;;;6.40;100.00;98652.25;5071343;28;20499;-85
2024/01/01 10:30:02;;;;;;;32.80;21.38;;;;;;;6.46;100.00;98658.91;5070822;28;20024;-85
2024/01/01 10:32:29;;;;;;;30.83;20.65;;;;;;;6.59;100.00;98669.53;5069963;28;20046;-85
2024/01/01 10:34:57;;;;;;;32.35;19.73;;;;;;;6.48;100.00;98638.97;5069734;28;20036;-85
2024/01/01 10:37:25;;;;;;;28.15;19.25;;;;;;;6.70;100.00;98672.44;5053027;28;20139;-85
2024/01/01 10:39:52;;;;;;;30.63;19.27;;;;;;;6.78;100.00;98679.84;5053624;28;20035;-85
2024/01/01 10:42:19;;;;;;;32.78;21.70;;;;;;;6.79;100.00;98676.38;5069717;28;20064;-85
2024/01/01 10:44:45;;;;;;;28.92;17.88;;;;;;;6.79;100.00;98669.44;5052819;28;20032;-85
2024/01/01 10:47:14;;;;;;;27.52;17.02;;;;;;;6.66;100.00;98635.53;5069855;28;20033;-85
2024/01/01 10:49:51;;;;;;;22.98;15.93;;;;;;;6.80;100.00;98662.53;5069568;28;20028;-85
2024/01/01 10:52:37;;;;;;;24.38;16.15;;;;;;;6.70;100.00;98643.97;5069841;28;20133;-85
2024/01/01 10:55:27;;;;;;;27.48;18.10;;;;;;;6.98;100.00;98682.34;5070323;28;20028;-85
2024/01/01 10:58:31;;;;;;;23.33;16.08;;;;;;;6.99;100.00;98687.47;5069656;28;20036;-85
2024/01/01 11:01:15;;;;;;;27.30;17.48;;;;;;;6.76;100.00;98635.94;5069846;28;20054;-85
2024/01/01 11:03:46;;;;;;;22.40;15.63;;;;;;;6.80;100.00;98658.19;5070929;28;20102;-85
2024/01/01 11:06:27;;;;;;;28.85;18.05;;;;;;;6.79;100.00;98664.28;5070968;28;20480;-84
2024/01/01 11:08:54;;;;;;;;;;;;;;;6.90;100.00;98677.53;5072790;28;20028;-85
2024/01/01 11:11:30;;;;;;;34.10;20.95;;;;;;;6.87;100.00;98685.47;5074331;28;20325;-85
2024/01/01 11:13:59;;;;;;;27.27;19.73;;;;;;;6.70;100.00;98656.91;5076226;28;20016;-85